createdAt,value
2016-08-26T00:00:13.542Z,0.00
2016-08-26T00:01:14.051Z,0.00
2016-08-26T00:02:14.553Z,0.00
2016-08-26T00:03:16.083Z,0.00
2016-08-26T00:04:15.684Z,0.00
2016-08-26T00:05:16.037Z,0.00
2016-08-26T00:06:16.821Z,0.00
2016-08-26T00:07:17.049Z,0.00
2016-08-26T00:08:17.817Z,0.00
2016-08-26T00:09:18.163Z,0.00
2016-08-26T00:10:26.924Z,0.00
2016-08-26T00:11:19.037Z,0.00
2016-08-26T00:12:19.549Z,0.00
2016-08-26T00:13:20.005Z,0.00
2016-08-26T00:14:20.802Z,0.00
2016-08-26T00:15:21.147Z,0.00
2016-08-26T00:16:21.797Z,0.00
2016-08-26T00:17:22.145Z,0.00
2016-08-26T00:18:22.670Z,0.00
2016-08-26T00:19:23.297Z,0.00
2016-08-26T00:20:23.514Z,0.00
2016-08-26T00:21:23.994Z,0.00
2016-08-26T00:22:24.527Z,0.00
2016-08-26T00:23:25.139Z,0.00
2016-08-26T00:24:25.667Z,0.00
2016-08-26T00:25:26.169Z,0.00
2016-08-26T00:26:26.640Z,0.00
2016-08-26T00:27:27.137Z,0.00
2016-08-26T00:28:27.637Z,0.00
2016-08-26T00:29:28.288Z,0.00
2016-08-26T00:30:28.485Z,0.00
2016-08-26T00:31:29.128Z,0.00
2016-08-26T00:32:29.631Z,0.00
2016-08-26T00:33:29.975Z,0.00
2016-08-26T00:34:30.507Z,0.00
2016-08-26T00:35:31.277Z,0.00
2016-08-26T00:36:31.638Z,0.00
2016-08-26T00:37:32.002Z,0.00
2016-08-26T00:38:33.364Z,0.00
2016-08-26T00:39:33.006Z,0.10
2016-08-26T00:40:33.608Z,0.00
2016-08-26T00:41:33.974Z,0.00
2016-08-26T00:42:34.494Z,0.00
2016-08-26T00:43:34.983Z,0.00
2016-08-26T00:44:35.600Z,0.00
2016-08-26T00:45:36.098Z,0.00
2016-08-26T00:46:36.742Z,0.00
2016-08-26T00:47:36.951Z,0.00
2016-08-26T00:48:37.737Z,0.00
2016-08-26T00:49:37.985Z,0.00
2016-08-26T00:50:38.593Z,0.10
2016-08-26T00:51:39.112Z,0.10
2016-08-26T00:52:39.438Z,0.20
2016-08-26T00:53:39.981Z,0.40
2016-08-26T00:54:40.574Z,0.50
2016-08-26T00:55:41.240Z,0.20
2016-08-26T00:56:41.447Z,0.20
2016-08-26T00:57:41.977Z,0.10
2016-08-26T00:58:42.444Z,0.20
2016-08-26T00:59:42.947Z,0.00
2016-08-26T01:00:43.590Z,0.00
2016-08-26T01:01:44.090Z,0.10
2016-08-26T01:02:44.426Z,0.00
2016-08-26T01:03:44.949Z,0.00
2016-08-26T01:04:45.574Z,0.00
2016-08-26T01:05:46.227Z,0.00
2016-08-26T01:06:46.579Z,0.10
2016-08-26T01:07:46.949Z,0.00
2016-08-26T01:08:47.419Z,0.00
2016-08-26T01:09:48.065Z,0.00
2016-08-26T01:10:48.416Z,0.00
2016-08-26T01:11:49.065Z,0.00
2016-08-26T01:12:49.722Z,0.00
2016-08-26T01:13:50.057Z,0.00
2016-08-26T01:14:50.584Z,0.00
2016-08-26T01:15:50.910Z,0.10
2016-08-26T01:16:51.574Z,0.00
2016-08-26T01:17:52.069Z,0.20
2016-08-26T01:18:52.701Z,0.00
2016-08-26T01:19:52.898Z,0.30
2016-08-26T01:20:53.405Z,0.20
2016-08-26T01:21:53.934Z,0.10
2016-08-26T01:22:54.392Z,0.00
2016-08-26T01:23:55.032Z,0.00
2016-08-26T01:24:55.694Z,0.00
2016-08-26T01:25:55.899Z,0.00
2016-08-26T01:26:56.525Z,0.00
2016-08-26T01:27:56.885Z,0.00
2016-08-26T01:28:57.520Z,0.00
2016-08-26T01:29:57.881Z,0.00
2016-08-26T01:30:58.519Z,0.00
2016-08-26T01:31:59.013Z,0.00
2016-08-26T01:32:59.549Z,0.00
2016-08-26T01:34:00.037Z,0.00
2016-08-26T01:35:00.656Z,0.00
2016-08-26T01:36:00.861Z,0.00
2016-08-26T01:37:01.362Z,0.00
2016-08-26T01:38:01.862Z,0.00
2016-08-26T01:39:02.372Z,0.00
2016-08-26T01:40:02.888Z,0.00
2016-08-26T01:41:03.374Z,0.00
2016-08-26T01:42:04.033Z,0.00
2016-08-26T01:43:04.370Z,0.00
2016-08-26T01:44:04.886Z,0.00
2016-08-26T01:45:05.356Z,0.00
2016-08-26T01:46:06.001Z,0.00
2016-08-26T01:47:06.358Z,0.00
2016-08-26T01:48:07.019Z,0.00
2016-08-26T01:49:07.351Z,0.00
2016-08-26T01:50:07.905Z,0.00
2016-08-26T01:51:08.353Z,0.00
2016-08-26T01:52:08.842Z,0.00
2016-08-26T01:53:09.637Z,0.00
2016-08-26T01:54:09.984Z,0.00
2016-08-26T01:55:10.365Z,0.00
2016-08-26T01:56:11.127Z,0.00
2016-08-26T01:57:11.325Z,0.00
2016-08-26T01:58:11.819Z,0.00
2016-08-26T01:59:12.490Z,0.00
2016-08-26T02:00:12.840Z,0.00
2016-08-26T02:01:13.331Z,0.00
2016-08-26T02:02:13.980Z,0.00
2016-08-26T02:03:14.457Z,0.00
2016-08-26T02:04:14.953Z,0.00
2016-08-26T02:05:15.453Z,0.00
2016-08-26T02:06:15.811Z,0.00
2016-08-26T02:07:16.447Z,0.00
2016-08-26T02:08:17.099Z,0.00
2016-08-26T02:09:17.593Z,0.00
2016-08-26T02:10:17.790Z,0.00
2016-08-26T02:11:18.320Z,0.00
2016-08-26T02:12:19.085Z,0.00
2016-08-26T02:13:19.283Z,0.00
2016-08-26T02:14:19.789Z,0.00
2016-08-26T02:15:20.449Z,0.00
2016-08-26T02:16:20.965Z,0.00
2016-08-26T02:17:21.312Z,0.00
2016-08-26T02:18:21.793Z,0.00
2016-08-26T02:19:22.578Z,0.00
2016-08-26T02:20:22.783Z,0.00
2016-08-26T02:21:23.283Z,0.00
2016-08-26T02:22:23.775Z,0.00
2016-08-26T02:23:24.424Z,0.00
2016-08-26T02:24:24.994Z,0.00
2016-08-26T02:25:25.287Z,0.00
2016-08-26T02:26:25.917Z,0.00
2016-08-26T02:27:26.419Z,0.00
2016-08-26T02:28:26.821Z,0.00
2016-08-26T02:29:27.412Z,0.00
2016-08-26T02:30:27.792Z,0.00
2016-08-26T02:31:28.559Z,0.00
2016-08-26T02:32:28.910Z,0.00
2016-08-26T02:33:29.264Z,0.00
2016-08-26T02:34:32.908Z,0.00
2016-08-26T02:35:30.274Z,0.00
2016-08-26T02:36:30.906Z,0.00
2016-08-26T02:37:31.271Z,0.10
2016-08-26T02:38:31.930Z,0.10
2016-08-26T02:39:32.418Z,0.10
2016-08-26T02:40:32.769Z,0.20
2016-08-26T02:41:33.252Z,0.10
2016-08-26T02:42:33.893Z,0.10
2016-08-26T02:43:34.394Z,0.00
2016-08-26T02:44:34.895Z,0.00
2016-08-26T02:45:35.393Z,0.00
2016-08-26T02:46:35.742Z,0.10
2016-08-26T02:47:36.244Z,0.20
2016-08-26T02:48:36.889Z,0.10
2016-08-26T02:49:37.393Z,0.10
2016-08-26T02:50:37.790Z,0.30
2016-08-26T02:51:38.270Z,0.30
2016-08-26T02:52:38.746Z,0.30
2016-08-26T02:53:39.272Z,0.30
2016-08-26T02:54:39.896Z,0.20
2016-08-26T02:55:40.393Z,0.30
2016-08-26T02:56:40.887Z,0.30
2016-08-26T02:57:41.538Z,0.30
2016-08-26T02:58:41.752Z,0.50
2016-08-26T02:59:42.261Z,0.90
2016-08-26T03:00:42.904Z,1.30
2016-08-26T03:01:43.542Z,1.30
2016-08-26T03:02:43.733Z,1.30
2016-08-26T03:03:44.385Z,1.80
2016-08-26T03:04:44.903Z,1.80
2016-08-26T03:05:45.226Z,2.40
2016-08-26T03:06:45.891Z,2.30
2016-08-26T03:07:46.373Z,2.50
2016-08-26T03:08:46.733Z,1.50
2016-08-26T03:09:47.244Z,1.90
2016-08-26T03:10:47.714Z,2.10
2016-08-26T03:11:48.364Z,1.60
2016-08-26T03:12:48.859Z,1.50
2016-08-26T03:13:49.241Z,2.00
2016-08-26T03:14:49.872Z,2.10
2016-08-26T03:15:50.365Z,1.90
2016-08-26T03:16:50.725Z,1.60
2016-08-26T03:17:51.373Z,0.80
2016-08-26T03:18:51.718Z,0.80
2016-08-26T03:19:52.204Z,0.80
2016-08-26T03:20:52.700Z,0.70
2016-08-26T03:21:53.344Z,0.80
2016-08-26T03:22:53.846Z,1.20
2016-08-26T03:23:54.219Z,1.00
2016-08-26T03:24:54.709Z,0.10
2016-08-26T03:25:55.200Z,0.20
2016-08-26T03:26:55.713Z,0.20
2016-08-26T03:27:56.371Z,0.20
2016-08-26T03:28:56.712Z,0.00
2016-08-26T03:29:57.383Z,0.20
2016-08-26T03:30:57.729Z,0.20
2016-08-26T03:31:58.221Z,0.10
2016-08-26T03:32:58.879Z,0.00
2016-08-26T03:33:59.368Z,0.00
2016-08-26T03:34:59.850Z,0.00
2016-08-26T03:36:00.205Z,0.00
2016-08-26T03:37:00.690Z,0.00
2016-08-26T03:38:01.211Z,0.00
2016-08-26T03:39:01.678Z,0.30
2016-08-26T03:40:02.327Z,0.50
2016-08-26T03:41:02.731Z,0.10
2016-08-26T03:42:03.192Z,0.30
2016-08-26T03:43:03.835Z,0.00
2016-08-26T03:44:04.345Z,0.00
2016-08-26T03:45:04.808Z,0.00
2016-08-26T03:46:05.171Z,0.00
2016-08-26T03:47:05.819Z,0.00
2016-08-26T03:48:06.451Z,0.00
2016-08-26T03:49:06.817Z,0.00
2016-08-26T03:50:07.313Z,0.00
2016-08-26T03:51:07.810Z,0.00
2016-08-26T03:52:08.297Z,0.00
2016-08-26T03:53:08.789Z,0.10
2016-08-26T03:54:09.304Z,0.10
2016-08-26T03:55:09.644Z,0.10
2016-08-26T03:56:10.283Z,0.30
2016-08-26T03:57:10.782Z,0.30
2016-08-26T03:58:11.281Z,0.00
2016-08-26T03:59:11.947Z,0.40
2016-08-26T04:00:12.282Z,0.30
2016-08-26T04:01:12.923Z,0.50
2016-08-26T04:02:13.305Z,0.40
2016-08-26T04:03:13.946Z,1.00
2016-08-26T04:04:14.157Z,1.10
2016-08-26T04:05:14.771Z,0.90
2016-08-26T04:06:15.275Z,0.40
2016-08-26T04:07:15.925Z,0.20
2016-08-26T04:08:16.267Z,0.40
2016-08-26T04:09:16.788Z,0.00
2016-08-26T04:10:17.418Z,0.00
2016-08-26T04:11:17.817Z,0.00
2016-08-26T04:12:18.189Z,0.00
2016-08-26T04:13:18.615Z,0.00
2016-08-26T04:14:19.248Z,0.00
2016-08-26T04:15:19.802Z,0.20
2016-08-26T04:16:20.391Z,0.50
2016-08-26T04:17:20.616Z,0.30
2016-08-26T04:18:21.104Z,0.50
2016-08-26T04:19:21.588Z,0.30
2016-08-26T04:20:22.104Z,0.00
2016-08-26T04:21:22.609Z,0.00
2016-08-26T04:22:23.229Z,0.00
2016-08-26T04:23:23.579Z,0.00
2016-08-26T04:24:24.071Z,0.00
2016-08-26T04:25:24.619Z,0.00
2016-08-26T04:26:25.098Z,0.00
2016-08-26T04:27:25.616Z,0.00
2016-08-26T04:28:26.217Z,0.00
2016-08-26T04:29:26.871Z,0.10
2016-08-26T04:30:27.222Z,0.20
2016-08-26T04:31:27.716Z,0.00
2016-08-26T04:32:28.375Z,0.00
2016-08-26T04:33:28.699Z,0.00
2016-08-26T04:34:29.072Z,0.00
2016-08-26T04:35:29.849Z,0.00
2016-08-26T04:36:30.217Z,0.00
2016-08-26T04:37:30.693Z,0.00
2016-08-26T04:38:31.042Z,0.10
2016-08-26T04:39:31.700Z,0.00
2016-08-26T04:40:32.339Z,0.00
2016-08-26T04:41:32.713Z,0.00
2016-08-26T04:42:33.059Z,0.00
2016-08-26T04:43:33.593Z,0.00
2016-08-26T04:44:34.067Z,0.00
2016-08-26T04:45:34.537Z,0.00
2016-08-26T04:46:35.212Z,0.00
2016-08-26T04:47:35.544Z,0.10
2016-08-26T04:48:36.212Z,0.00
2016-08-26T04:49:36.525Z,0.20
2016-08-26T04:50:37.048Z,0.20
2016-08-26T04:51:37.557Z,0.10
2016-08-26T04:52:38.360Z,0.10
2016-08-26T04:53:38.668Z,0.00
2016-08-26T04:54:39.023Z,0.00
2016-08-26T04:55:39.666Z,0.00
2016-08-26T04:56:40.023Z,0.00
2016-08-26T04:57:40.658Z,0.00
2016-08-26T04:58:41.008Z,0.00
2016-08-26T04:59:41.660Z,0.00
2016-08-26T05:00:42.021Z,0.00
2016-08-26T05:01:42.654Z,0.00
2016-08-26T05:02:43.313Z,0.00
2016-08-26T05:03:43.664Z,0.00
2016-08-26T05:04:44.144Z,0.00
2016-08-26T05:05:44.792Z,0.00
2016-08-26T05:06:45.140Z,0.00
2016-08-26T05:07:45.490Z,0.00
2016-08-26T05:08:46.135Z,0.00
2016-08-26T05:09:46.497Z,0.00
2016-08-26T05:10:46.985Z,0.00
2016-08-26T05:11:47.636Z,0.00
2016-08-26T05:12:48.305Z,0.00
2016-08-26T05:13:48.566Z,0.00
2016-08-26T05:14:49.141Z,0.00
2016-08-26T05:15:49.632Z,0.00
2016-08-26T05:16:50.021Z,0.00
2016-08-26T05:17:50.783Z,0.00
2016-08-26T05:18:51.007Z,0.00
2016-08-26T05:19:51.641Z,0.00
2016-08-26T05:20:52.136Z,0.00
2016-08-26T05:21:52.631Z,0.00
2016-08-26T05:22:53.135Z,0.00
2016-08-26T05:23:53.496Z,0.00
2016-08-26T05:24:54.126Z,0.00
2016-08-26T05:25:54.619Z,0.00
2016-08-26T05:26:55.121Z,0.00
2016-08-26T05:27:55.774Z,0.10
2016-08-26T05:28:56.004Z,0.30
2016-08-26T05:29:56.765Z,1.20
2016-08-26T05:30:56.966Z,1.30
2016-08-26T05:31:57.627Z,0.60
2016-08-26T05:32:57.960Z,0.20
2016-08-26T05:33:58.469Z,0.10
2016-08-26T05:34:59.104Z,0.30
2016-08-26T05:35:59.452Z,0.00
2016-08-26T05:36:59.982Z,0.10
2016-08-26T05:38:00.448Z,0.40
2016-08-26T05:39:00.966Z,0.50
2016-08-26T05:40:01.597Z,0.30
2016-08-26T05:41:01.968Z,0.40
2016-08-26T05:42:02.467Z,0.20
2016-08-26T05:43:02.959Z,0.10
2016-08-26T05:44:03.585Z,0.00
2016-08-26T05:45:04.084Z,0.00
2016-08-26T05:46:04.745Z,0.50
2016-08-26T05:47:04.936Z,0.40
2016-08-26T05:48:05.742Z,0.00
2016-08-26T05:49:06.082Z,0.10
2016-08-26T05:50:06.598Z,0.10
2016-08-26T05:51:07.107Z,0.20
2016-08-26T05:52:07.601Z,0.00
2016-08-26T05:53:08.087Z,0.00
2016-08-26T05:54:08.587Z,0.00
2016-08-26T05:55:09.003Z,0.00
2016-08-26T05:56:09.446Z,0.00
2016-08-26T05:57:09.975Z,0.10
2016-08-26T05:58:10.586Z,0.00
2016-08-26T05:59:10.916Z,0.60
2016-08-26T06:00:11.713Z,0.20
2016-08-26T06:01:12.213Z,0.00
2016-08-26T06:02:12.432Z,0.00
2016-08-26T06:03:12.905Z,0.00
2016-08-26T06:04:13.547Z,0.00
2016-08-26T06:05:14.071Z,0.00
2016-08-26T06:06:14.548Z,0.00
2016-08-26T06:07:14.921Z,0.00
2016-08-26T06:08:15.539Z,0.00
2016-08-26T06:09:16.055Z,0.00
2016-08-26T06:10:16.412Z,0.00
2016-08-26T06:11:17.185Z,0.00
2016-08-26T06:12:17.558Z,0.00
2016-08-26T06:13:18.050Z,0.00
2016-08-26T06:14:18.533Z,0.00
2016-08-26T06:15:18.901Z,0.00
2016-08-26T06:16:19.375Z,0.00
2016-08-26T06:17:19.879Z,0.00
2016-08-26T06:18:20.388Z,0.00
2016-08-26T06:19:20.888Z,0.00
2016-08-26T06:20:21.382Z,0.00
2016-08-26T06:21:21.878Z,0.00
2016-08-26T06:22:22.360Z,0.80
2016-08-26T06:23:22.857Z,0.10
2016-08-26T06:24:23.498Z,0.00
2016-08-26T06:25:23.862Z,0.60
2016-08-26T06:26:24.495Z,0.40
2016-08-26T06:27:24.870Z,0.40
2016-08-26T06:28:25.367Z,0.40
2016-08-26T06:29:26.002Z,0.00
2016-08-26T06:30:26.667Z,0.10
2016-08-26T06:31:26.888Z,1.00
2016-08-26T06:32:27.377Z,0.90
2016-08-26T06:33:27.997Z,0.80
2016-08-26T06:34:28.491Z,0.60
2016-08-26T06:35:29.015Z,0.50
2016-08-26T06:36:29.486Z,0.30
2016-08-26T06:37:30.149Z,0.00
2016-08-26T06:38:30.359Z,0.00
2016-08-26T06:39:30.981Z,0.00
2016-08-26T06:40:31.428Z,0.00
2016-08-26T06:41:31.828Z,0.00
2016-08-26T06:42:32.324Z,0.00
2016-08-26T06:43:32.971Z,0.00
2016-08-26T06:44:33.334Z,0.10
2016-08-26T06:45:33.829Z,0.50
2016-08-26T06:46:34.369Z,0.50
2016-08-26T06:47:34.968Z,1.30
2016-08-26T06:48:35.326Z,1.00
2016-08-26T06:49:35.972Z,1.90
2016-08-26T06:50:36.342Z,1.10
2016-08-26T06:51:36.810Z,1.00
2016-08-26T06:52:37.310Z,0.80
2016-08-26T06:53:37.826Z,0.50
2016-08-26T06:54:38.453Z,0.20
2016-08-26T06:55:38.825Z,0.20
2016-08-26T06:56:39.460Z,0.20
2016-08-26T06:57:39.947Z,0.80
2016-08-26T06:58:40.295Z,0.60
2016-08-26T06:59:41.090Z,0.90
2016-08-26T07:00:41.322Z,0.80
2016-08-26T07:01:41.795Z,0.90
2016-08-26T07:02:42.294Z,1.50
2016-08-26T07:03:42.934Z,1.40
2016-08-26T07:04:43.307Z,1.10
2016-08-26T07:05:43.939Z,1.00
2016-08-26T07:06:44.592Z,1.00
2016-08-26T07:07:44.798Z,0.20
2016-08-26T07:08:45.440Z,1.10
2016-08-26T07:09:45.956Z,1.20
2016-08-26T07:10:46.435Z,1.40
2016-08-26T07:11:46.809Z,1.40
2016-08-26T07:12:47.450Z,0.20
2016-08-26T07:13:47.814Z,0.30
2016-08-26T07:14:48.585Z,1.10
2016-08-26T07:15:48.953Z,0.80
2016-08-26T07:16:49.277Z,0.10
2016-08-26T07:17:49.817Z,1.00
2016-08-26T07:18:50.302Z,0.40
2016-08-26T07:19:50.779Z,1.70
2016-08-26T07:20:51.442Z,1.40
2016-08-26T07:21:51.773Z,1.20
2016-08-26T07:22:52.289Z,1.10
2016-08-26T07:23:52.918Z,1.30
2016-08-26T07:24:53.460Z,0.70
2016-08-26T07:25:53.792Z,1.10
2016-08-26T07:26:54.409Z,0.90
2016-08-26T07:27:54.916Z,1.10
2016-08-26T07:28:55.405Z,1.10
2016-08-26T07:29:55.919Z,1.10
2016-08-26T07:30:56.260Z,0.50
2016-08-26T07:31:56.903Z,1.00
2016-08-26T07:32:57.399Z,1.00
2016-08-26T07:33:57.781Z,1.70
2016-08-26T07:34:58.267Z,1.70
2016-08-26T07:35:58.781Z,1.40
2016-08-26T07:36:59.256Z,2.40
2016-08-26T07:37:59.897Z,1.40
2016-08-26T07:39:00.396Z,1.40
2016-08-26T07:40:00.748Z,1.50
2016-08-26T07:41:01.274Z,1.30
2016-08-26T07:42:02.048Z,0.70
2016-08-26T07:43:02.269Z,0.90
2016-08-26T07:44:03.061Z,0.90
2016-08-26T07:45:03.253Z,0.80
2016-08-26T07:46:05.859Z,1.10
2016-08-26T07:47:04.414Z,1.30
2016-08-26T07:48:05.049Z,0.50
2016-08-26T07:49:05.270Z,1.50
2016-08-26T07:50:05.767Z,0.10
2016-08-26T07:51:06.441Z,0.00
2016-08-26T07:52:06.891Z,0.10
2016-08-26T07:53:07.541Z,0.00
2016-08-26T07:54:07.887Z,1.00
2016-08-26T07:55:08.237Z,1.20
2016-08-26T07:56:08.903Z,0.60
2016-08-26T07:57:09.412Z,0.00
2016-08-26T07:58:09.757Z,0.10
2016-08-26T07:59:10.405Z,0.50
2016-08-26T08:00:10.726Z,0.80
2016-08-26T08:01:11.231Z,0.90
2016-08-26T08:02:11.895Z,0.90
2016-08-26T08:03:12.518Z,1.20
2016-08-26T08:04:12.733Z,0.70
2016-08-26T08:05:13.224Z,1.30
2016-08-26T08:06:13.711Z,1.60
2016-08-26T08:07:14.363Z,1.50
2016-08-26T08:08:14.718Z,1.70
2016-08-26T08:09:15.226Z,1.50
2016-08-26T08:10:15.702Z,0.30
2016-08-26T08:11:16.371Z,0.40
2016-08-26T08:12:16.848Z,0.70
2016-08-26T08:13:17.500Z,0.00
2016-08-26T08:14:17.847Z,0.00
2016-08-26T08:15:18.215Z,0.40
2016-08-26T08:16:18.707Z,0.60
2016-08-26T08:17:19.353Z,0.40
2016-08-26T08:18:19.854Z,0.00
2016-08-26T08:19:20.342Z,0.60
2016-08-26T08:20:20.852Z,1.90
2016-08-26T08:21:21.366Z,0.50
2016-08-26T08:22:21.867Z,0.30
2016-08-26T08:23:22.186Z,1.50
2016-08-26T08:24:22.699Z,1.30
2016-08-26T08:25:23.498Z,1.40
2016-08-26T08:26:23.678Z,1.40
2016-08-26T08:27:24.226Z,1.30
2016-08-26T08:28:24.991Z,1.10
2016-08-26T08:29:25.348Z,1.90
2016-08-26T08:30:25.829Z,1.50
2016-08-26T08:31:26.165Z,1.80
2016-08-26T08:32:26.669Z,1.10
2016-08-26T08:33:27.160Z,0.60
2016-08-26T08:34:27.817Z,1.60
2016-08-26T08:35:28.158Z,1.20
2016-08-26T08:36:28.714Z,1.60
2016-08-26T08:37:29.155Z,1.70
2016-08-26T08:38:29.947Z,0.80
2016-08-26T08:39:30.311Z,1.50
2016-08-26T08:40:30.798Z,1.10
2016-08-26T08:41:31.473Z,0.00
2016-08-26T08:42:31.794Z,0.80
2016-08-26T08:43:32.448Z,1.00
2016-08-26T08:44:32.639Z,1.40
2016-08-26T08:45:33.162Z,0.10
2016-08-26T08:46:33.796Z,1.20
2016-08-26T08:47:34.286Z,1.60
2016-08-26T08:48:34.789Z,1.60
2016-08-26T08:49:35.154Z,1.00
2016-08-26T08:50:35.685Z,1.20
2016-08-26T08:51:36.174Z,0.20
2016-08-26T08:52:36.635Z,1.70
2016-08-26T08:53:37.134Z,0.70
2016-08-26T08:54:37.636Z,0.60
2016-08-26T08:55:38.307Z,0.60
2016-08-26T08:56:38.636Z,0.60
2016-08-26T08:57:39.281Z,0.60
2016-08-26T08:58:39.777Z,0.70
2016-08-26T08:59:40.146Z,0.00
2016-08-26T09:00:40.638Z,0.00
2016-08-26T09:01:41.180Z,0.00
2016-08-26T09:02:41.792Z,0.20
2016-08-26T09:03:42.128Z,0.00
2016-08-26T09:04:42.774Z,0.60
2016-08-26T09:05:43.122Z,0.00
2016-08-26T09:06:43.620Z,0.60
2016-08-26T09:07:44.118Z,0.90
2016-08-26T09:08:44.635Z,0.00
2016-08-26T09:09:45.133Z,0.80
2016-08-26T09:10:45.913Z,1.00
2016-08-26T09:11:46.137Z,1.70
2016-08-26T09:12:46.783Z,1.90
2016-08-26T09:13:47.254Z,1.40
2016-08-26T09:14:47.754Z,0.80
2016-08-26T09:15:48.270Z,1.50
2016-08-26T09:16:48.749Z,1.30
2016-08-26T09:17:49.112Z,1.80
2016-08-26T09:18:49.618Z,0.60
2016-08-26T09:19:50.096Z,0.80
2016-08-26T09:20:50.745Z,0.80
2016-08-26T09:21:51.104Z,0.00
2016-08-26T09:22:51.742Z,0.00
2016-08-26T09:23:52.238Z,0.00
2016-08-26T09:24:52.738Z,0.00
2016-08-26T09:25:53.107Z,0.90
2016-08-26T09:26:53.732Z,1.30
2016-08-26T09:27:54.390Z,1.70
2016-08-26T09:28:54.750Z,1.40
2016-08-26T09:29:55.094Z,0.60
2016-08-26T09:30:55.615Z,0.00
2016-08-26T09:31:56.235Z,0.00
2016-08-26T09:32:56.612Z,0.50
2016-08-26T09:33:57.096Z,0.00
2016-08-26T09:34:57.740Z,1.00
2016-08-26T09:35:58.257Z,0.60
2016-08-26T09:36:58.602Z,0.40
2016-08-26T09:37:59.226Z,0.30
2016-08-26T09:38:59.575Z,0.00
2016-08-26T09:40:00.234Z,0.00
2016-08-26T09:41:00.875Z,0.00
2016-08-26T09:42:01.221Z,0.00
2016-08-26T09:43:01.713Z,0.00
2016-08-26T09:44:02.108Z,0.70
2016-08-26T09:45:02.561Z,0.00
2016-08-26T09:46:03.220Z,0.10
2016-08-26T09:47:03.707Z,0.30
2016-08-26T09:48:04.052Z,0.00
2016-08-26T09:49:04.715Z,0.00
2016-08-26T09:50:05.200Z,0.00
2016-08-26T09:51:05.551Z,0.50
2016-08-26T09:52:06.210Z,0.20
2016-08-26T09:53:06.695Z,0.00
2016-08-26T09:54:07.232Z,1.10
2016-08-26T09:55:07.545Z,0.80
2016-08-26T09:56:08.052Z,0.10
2016-08-26T09:57:08.549Z,0.00
2016-08-26T09:58:09.197Z,0.00
2016-08-26T09:59:09.696Z,1.50
2016-08-26T10:00:10.036Z,1.40
2016-08-26T10:01:10.694Z,1.10
2016-08-26T10:02:11.211Z,0.40
2016-08-26T10:03:11.551Z,0.00
2016-08-26T10:04:12.171Z,0.00
2016-08-26T10:05:12.691Z,0.00
2016-08-26T10:06:13.048Z,0.00
2016-08-26T10:07:13.521Z,0.80
2016-08-26T10:08:14.038Z,0.10
2016-08-26T10:09:14.564Z,1.00
2016-08-26T10:10:17.593Z,0.80
2016-08-26T10:11:15.821Z,0.00
2016-08-26T10:12:16.207Z,0.00
2016-08-26T10:13:16.516Z,0.00
2016-08-26T10:14:17.160Z,0.30
2016-08-26T10:15:17.674Z,0.40
2016-08-26T10:16:18.037Z,0.30
2016-08-26T10:17:18.657Z,0.30
2016-08-26T10:18:19.186Z,0.90
2016-08-26T10:19:19.536Z,0.50
2016-08-26T10:20:20.166Z,0.00
2016-08-26T10:21:20.647Z,0.30
2016-08-26T10:22:20.998Z,0.30
2016-08-26T10:23:21.648Z,0.00
2016-08-26T10:24:22.140Z,0.00
2016-08-26T10:25:22.643Z,0.00
2016-08-26T10:26:23.023Z,0.00
2016-08-26T10:27:23.489Z,0.90
2016-08-26T10:28:24.132Z,1.40
2016-08-26T10:29:24.637Z,0.20
2016-08-26T10:30:25.140Z,1.10
2016-08-26T10:31:25.638Z,1.10
2016-08-26T10:32:26.131Z,1.10
2016-08-26T10:33:26.628Z,1.10
2016-08-26T10:34:26.981Z,1.20
2016-08-26T10:35:27.517Z,0.90
2016-08-26T10:36:28.155Z,1.00
2016-08-26T10:37:28.630Z,0.00
2016-08-26T10:38:28.999Z,0.00
2016-08-26T10:39:29.786Z,1.20
2016-08-26T10:40:29.974Z,1.50
2016-08-26T10:41:30.621Z,1.20
2016-08-26T10:42:31.268Z,1.50
2016-08-26T10:43:31.733Z,1.20
2016-08-26T10:44:32.273Z,0.80
2016-08-26T10:45:32.467Z,0.70
2016-08-26T10:46:32.974Z,0.20
2016-08-26T10:47:33.483Z,1.10
2016-08-26T10:48:33.969Z,1.30
2016-08-26T10:49:34.756Z,0.50
2016-08-26T10:50:35.116Z,0.80
2016-08-26T10:51:35.491Z,0.70
2016-08-26T10:52:36.118Z,0.60
2016-08-26T10:53:36.449Z,0.20
2016-08-26T10:54:37.155Z,0.00
2016-08-26T10:55:37.741Z,1.60
2016-08-26T10:56:37.940Z,1.40
2016-08-26T10:57:38.620Z,1.80
2016-08-26T10:58:39.087Z,2.00
2016-08-26T10:59:39.433Z,0.70
2016-08-26T11:00:39.952Z,0.30
2016-08-26T11:01:40.429Z,1.50
2016-08-26T11:02:41.109Z,0.20
2016-08-26T11:03:41.615Z,0.00
2016-08-26T11:04:42.075Z,0.00
2016-08-26T11:05:42.591Z,0.00
2016-08-26T11:06:42.938Z,0.60
2016-08-26T11:07:43.419Z,0.70
2016-08-26T11:08:43.943Z,0.20
2016-08-26T11:09:44.426Z,0.00
2016-08-26T11:10:45.086Z,0.00
2016-08-26T11:11:45.558Z,0.30
2016-08-26T11:12:45.932Z,0.30
2016-08-26T11:13:46.439Z,0.00
2016-08-26T11:14:47.067Z,0.00
2016-08-26T11:15:47.705Z,0.00
2016-08-26T11:16:48.051Z,0.00
2016-08-26T11:17:48.558Z,0.00
2016-08-26T11:18:48.932Z,0.00
2016-08-26T11:19:49.432Z,0.00
2016-08-26T11:20:50.059Z,0.40
2016-08-26T11:21:50.411Z,0.40
2016-08-26T11:22:51.061Z,0.00
2016-08-26T11:23:51.568Z,0.00
2016-08-26T11:24:52.056Z,0.00
2016-08-26T11:25:52.411Z,0.00
2016-08-26T11:26:53.211Z,0.00
2016-08-26T11:27:53.404Z,0.00
2016-08-26T11:28:54.049Z,0.00
2016-08-26T11:29:54.410Z,0.50
2016-08-26T11:30:55.197Z,1.20
2016-08-26T11:31:55.391Z,0.60
2016-08-26T11:32:56.041Z,0.50
2016-08-26T11:33:56.546Z,0.00
2016-08-26T11:34:57.042Z,0.00
2016-08-26T11:35:57.393Z,0.70
2016-08-26T11:36:57.907Z,0.60
2016-08-26T11:37:58.536Z,0.00
2016-08-26T11:38:59.050Z,0.00
2016-08-26T11:39:59.532Z,0.00
2016-08-26T11:41:00.037Z,0.40
2016-08-26T11:42:00.428Z,1.40
2016-08-26T11:43:01.027Z,0.90
2016-08-26T11:44:01.380Z,0.00
2016-08-26T11:45:01.899Z,0.20
2016-08-26T11:46:02.519Z,0.30
2016-08-26T11:47:02.894Z,0.20
2016-08-26T11:48:03.517Z,0.00
2016-08-26T11:49:03.887Z,0.00
2016-08-26T11:50:04.383Z,0.00
2016-08-26T11:51:05.017Z,0.00
2016-08-26T11:52:05.364Z,0.00
2016-08-26T11:53:05.882Z,0.00
2016-08-26T11:54:06.514Z,0.00
2016-08-26T11:55:07.166Z,0.10
2016-08-26T11:56:07.524Z,0.30
2016-08-26T11:57:08.015Z,0.30
2016-08-26T11:58:08.373Z,0.00
2016-08-26T11:59:09.017Z,0.30
2016-08-26T12:00:09.366Z,0.50
2016-08-26T12:01:09.872Z,0.50
2016-08-26T12:02:10.399Z,0.10
2016-08-26T12:03:11.026Z,0.00
2016-08-26T12:04:11.510Z,0.00
2016-08-26T12:05:12.004Z,0.00
2016-08-26T12:06:12.527Z,0.00
2016-08-26T12:07:12.871Z,0.00
2016-08-26T12:08:13.393Z,0.00
2016-08-26T12:09:13.907Z,0.00
2016-08-26T12:10:14.514Z,0.00
2016-08-26T12:11:14.856Z,0.00
2016-08-26T12:12:15.531Z,0.00
2016-08-26T12:13:16.156Z,0.00
2016-08-26T12:14:16.527Z,0.00
2016-08-26T12:15:17.017Z,0.00
2016-08-26T12:16:17.494Z,0.00
2016-08-26T12:17:17.986Z,0.00
2016-08-26T12:18:18.378Z,0.00
2016-08-26T12:19:18.851Z,0.00
2016-08-26T12:20:19.328Z,0.00
2016-08-26T12:21:19.860Z,0.00
2016-08-26T12:22:20.323Z,0.00
2016-08-26T12:23:20.820Z,0.00
2016-08-26T12:24:21.468Z,0.00
2016-08-26T12:25:21.967Z,0.00
2016-08-26T12:26:22.617Z,0.00
2016-08-26T12:27:22.851Z,0.00
2016-08-26T12:28:23.317Z,0.00
2016-08-26T12:29:23.962Z,0.10
2016-08-26T12:30:24.323Z,0.00
2016-08-26T12:31:24.988Z,0.00
2016-08-26T12:32:25.313Z,0.00
2016-08-26T12:33:25.844Z,0.00
2016-08-26T12:34:26.351Z,0.00
2016-08-26T12:35:26.984Z,0.00
2016-08-26T12:36:27.459Z,0.00
2016-08-26T12:37:27.812Z,0.00
2016-08-26T12:38:28.450Z,0.00
2016-08-26T12:39:29.099Z,0.00
2016-08-26T12:40:29.463Z,0.00
2016-08-26T12:41:29.799Z,0.00
2016-08-26T12:42:30.321Z,0.00
2016-08-26T12:43:30.789Z,0.00
2016-08-26T12:44:31.286Z,0.00
2016-08-26T12:45:31.805Z,0.00
2016-08-26T12:46:32.284Z,0.00
2016-08-26T12:47:32.967Z,0.00
2016-08-26T12:48:33.445Z,0.00
2016-08-26T12:49:34.082Z,0.10
2016-08-26T12:50:34.573Z,0.00
2016-08-26T12:51:34.935Z,0.00
2016-08-26T12:52:35.268Z,0.00
2016-08-26T12:53:35.915Z,0.00
2016-08-26T12:54:36.259Z,0.00
2016-08-26T12:55:36.755Z,0.00
2016-08-26T12:56:37.552Z,0.00
2016-08-26T12:57:37.922Z,0.00
2016-08-26T12:58:38.564Z,0.00
2016-08-26T12:59:38.778Z,0.00
2016-08-26T13:00:39.396Z,0.00
2016-08-26T13:01:39.894Z,0.00
2016-08-26T13:02:40.301Z,0.00
2016-08-26T13:03:40.781Z,0.00
2016-08-26T13:04:41.257Z,0.00
2016-08-26T13:05:41.894Z,0.00
2016-08-26T13:06:42.247Z,0.00
2016-08-26T13:07:42.928Z,0.00
2016-08-26T13:08:43.547Z,0.00
2016-08-26T13:09:43.745Z,0.20
2016-08-26T13:10:44.252Z,0.20
2016-08-26T13:11:44.769Z,0.00
2016-08-26T13:12:45.394Z,0.00
2016-08-26T13:13:45.895Z,0.00
2016-08-26T13:14:46.393Z,0.00
2016-08-26T13:15:46.745Z,0.00
2016-08-26T13:16:47.309Z,0.00
2016-08-26T13:17:47.916Z,0.00
2016-08-26T13:18:48.532Z,0.00
2016-08-26T13:19:48.884Z,0.00
2016-08-26T13:20:49.379Z,0.00
2016-08-26T13:21:49.728Z,0.10
2016-08-26T13:22:50.375Z,0.00
2016-08-26T13:23:50.728Z,0.00
2016-08-26T13:24:51.371Z,0.00